createdAt,value
2023-05-04T00:00:16.374Z,100206.65
2023-05-04T00:02:45.676Z,100205.61
2023-05-04T00:04:58.911Z,100204.36
2023-05-04T00:07:08.476Z,100202.27
2023-05-04T00:09:17.564Z,100207.52
2023-05-04T00:11:27.090Z,100209.83
2023-05-04T00:13:36.367Z,100212.37
2023-05-04T00:15:45.867Z,100219.80
2023-05-04T00:17:57.040Z,100227.52
2023-05-04T00:20:06.832Z,100232.92
2023-05-04T00:22:16.147Z,100230.30
2023-05-04T00:24:25.577Z,100235.06
2023-05-04T00:26:35.162Z,100236.12
2023-05-04T00:28:44.269Z,100234.92
2023-05-04T00:30:54.746Z,100233.75
2023-05-04T00:33:03.860Z,100241.47
2023-05-04T00:35:15.911Z,100242.24
2023-05-04T00:37:23.360Z,100240.36
2023-05-04T00:39:35.519Z,100242.89
2023-05-04T00:41:44.952Z,100239.30
2023-05-04T00:43:54.364Z,100238.36
2023-05-04T00:46:03.509Z,100234.41
2023-05-04T00:48:12.953Z,100230.64
2023-05-04T00:50:24.039Z,100225.16
2023-05-04T00:52:33.483Z,100227.55
2023-05-04T00:54:43.308Z,100225.80
2023-05-04T00:56:53.517Z,100219.39
2023-05-04T00:59:02.780Z,100220.16
2023-05-04T01:01:12.033Z,100223.12
2023-05-04T01:03:21.470Z,100228.21
2023-05-04T01:05:36.893Z,100231.36
2023-05-04T01:07:59.828Z,100233.95
2023-05-04T01:10:16.540Z,100234.90
2023-05-04T01:12:37.682Z,100234.04
2023-05-04T01:14:48.482Z,100231.27
2023-05-04T01:17:01.824Z,100235.83
2023-05-04T01:19:11.030Z,100238.55
2023-05-04T01:21:20.072Z,100238.23
2023-05-04T01:23:29.414Z,100237.46
2023-05-04T01:25:46.713Z,100240.48
2023-05-04T01:28:01.190Z,100242.88
2023-05-04T01:30:15.862Z,100254.09
2023-05-04T01:32:29.333Z,100258.98
2023-05-04T01:34:40.569Z,100259.61
2023-05-04T01:36:50.080Z,100259.71
2023-05-04T01:39:01.430Z,100266.75
2023-05-04T01:41:10.598Z,100267.92
2023-05-04T01:43:19.893Z,100277.27
2023-05-04T01:45:29.197Z,100283.27
2023-05-04T01:47:38.615Z,100291.10
2023-05-04T01:49:47.728Z,100299.17
2023-05-04T01:51:58.308Z,100311.48
2023-05-04T01:54:07.617Z,100317.61
2023-05-04T01:56:17.671Z,100332.10
2023-05-04T01:58:27.509Z,100340.35
2023-05-04T02:00:36.556Z,100343.45
2023-05-04T02:02:45.869Z,100347.21
2023-05-04T02:04:59.206Z,100342.96
2023-05-04T02:07:08.376Z,100342.11
2023-05-04T02:09:18.034Z,100338.70
2023-05-04T02:11:27.476Z,100338.23
2023-05-04T02:13:36.972Z,100327.53
2023-05-04T02:15:48.214Z,100324.24
2023-05-04T02:17:59.582Z,100303.40
2023-05-04T02:20:11.006Z,100272.41
2023-05-04T02:22:20.291Z,100241.85
2023-05-04T02:24:29.963Z,100208.95
2023-05-04T02:26:39.092Z,100178.34
2023-05-04T02:28:48.627Z,100177.73
2023-05-04T02:30:58.115Z,100182.83
2023-05-04T02:33:07.388Z,100183.70
2023-05-04T02:35:16.429Z,100177.55
2023-05-04T02:37:25.933Z,100178.84
2023-05-04T02:39:35.076Z,100203.36
2023-05-04T02:41:44.250Z,100237.73
2023-05-04T02:43:53.433Z,100275.41
2023-05-04T02:46:02.768Z,100298.28
2023-05-04T02:48:11.989Z,100321.96
2023-05-04T02:50:21.366Z,100337.95
2023-05-04T02:52:30.615Z,100357.20
2023-05-04T02:54:40.139Z,100369.20
2023-05-04T02:56:49.304Z,100376.11
2023-05-04T02:58:58.908Z,100382.71
2023-05-04T03:01:08.219Z,100384.33
2023-05-04T03:03:17.481Z,100386.70
2023-05-04T03:05:27.161Z,100390.05
2023-05-04T03:07:36.474Z,100389.88
2023-05-04T03:09:47.521Z,100394.67
2023-05-04T03:12:00.121Z,100400.88
2023-05-04T03:14:09.737Z,100409.55
2023-05-04T03:16:19.215Z,100402.67
2023-05-04T03:18:28.883Z,100398.27
2023-05-04T03:20:38.168Z,100395.89
2023-05-04T03:22:49.057Z,100390.14
2023-05-04T03:24:58.535Z,100393.65
2023-05-04T03:27:07.719Z,100396.39
2023-05-04T03:29:17.796Z,100394.75
2023-05-04T03:31:27.309Z,100388.73
2023-05-04T03:33:36.715Z,100396.95
2023-05-04T03:35:46.047Z,100401.65
2023-05-04T03:37:55.087Z,100412.69
2023-05-04T03:40:04.607Z,100411.92
2023-05-04T03:42:14.193Z,100412.37
2023-05-04T03:44:23.442Z,100417.15
2023-05-04T03:46:32.922Z,100430.11
2023-05-04T03:48:42.522Z,100450.09
2023-05-04T03:50:54.063Z,100464.79
2023-05-04T03:53:03.434Z,100470.42
2023-05-04T03:55:13.942Z,100471.53
2023-05-04T03:57:24.514Z,100475.41
2023-05-04T03:59:35.257Z,100477.77
2023-05-04T04:01:46.421Z,100479.04
2023-05-04T04:03:59.539Z,100466.42
2023-05-04T04:06:10.090Z,100451.14
2023-05-04T04:08:19.726Z,100435.94
2023-05-04T04:10:30.099Z,100428.73
2023-05-04T04:12:39.205Z,100420.48
2023-05-04T04:14:49.202Z,100422.32
2023-05-04T04:16:58.820Z,100425.29
2023-05-04T04:19:08.292Z,100435.42
2023-05-04T04:21:17.515Z,100445.73
2023-05-04T04:23:26.589Z,100455.80
2023-05-04T04:25:35.848Z,100463.77
2023-05-04T04:27:44.930Z,100468.76
2023-05-04T04:29:54.381Z,100468.54
2023-05-04T04:32:03.864Z,100471.95
2023-05-04T04:34:13.016Z,100478.86
2023-05-04T04:36:22.119Z,100483.67
2023-05-04T04:38:31.319Z,100492.88
2023-05-04T04:40:40.431Z,100500.99
2023-05-04T04:42:49.494Z,100503.23
2023-05-04T04:44:58.918Z,100507.86
2023-05-04T04:47:08.164Z,100510.14
2023-05-04T04:49:18.147Z,100522.42
2023-05-04T04:51:27.396Z,100521.27
2023-05-04T04:53:36.495Z,100520.95
2023-05-04T04:55:46.013Z,100522.39
2023-05-04T04:57:55.970Z,100514.52
2023-05-04T05:00:09.642Z,100506.24
2023-05-04T05:02:18.822Z,100505.90
2023-05-04T05:04:28.027Z,100508.19
2023-05-04T05:06:38.126Z,100507.06
2023-05-04T05:08:47.147Z,100510.83
2023-05-04T05:10:56.591Z,100512.26
2023-05-04T05:13:06.059Z,100504.80
2023-05-04T05:15:16.025Z,100503.36
2023-05-04T05:17:28.648Z,100516.42
2023-05-04T05:19:38.823Z,100534.85
2023-05-04T05:21:47.838Z,100556.04
2023-05-04T05:23:57.056Z,100563.89
2023-05-04T05:26:06.690Z,100570.98
2023-05-04T05:28:17.801Z,100572.59
2023-05-04T05:30:28.782Z,100567.91
2023-05-04T05:32:38.178Z,100551.30
2023-05-04T05:34:47.685Z,100543.57
2023-05-04T05:36:56.748Z,100537.59
2023-05-04T05:39:06.518Z,100535.62
2023-05-04T05:41:16.524Z,100531.50
2023-05-04T05:43:25.584Z,100515.27
2023-05-04T05:45:34.967Z,100493.02
2023-05-04T05:47:44.136Z,100478.74
2023-05-04T05:49:53.354Z,100480.41
2023-05-04T05:52:02.551Z,100487.20
2023-05-04T05:54:11.659Z,100490.77
2023-05-04T05:56:20.830Z,100505.17
2023-05-04T05:58:30.181Z,100523.77
2023-05-04T06:00:39.733Z,100540.05
2023-05-04T06:02:48.865Z,100545.23
2023-05-04T06:04:58.149Z,100540.92
2023-05-04T06:07:07.569Z,100539.27
2023-05-04T06:09:17.204Z,100553.92
2023-05-04T06:11:26.276Z,100568.02
2023-05-04T06:13:35.840Z,100576.20
2023-05-04T06:15:52.071Z,100575.70
2023-05-04T06:18:01.821Z,100569.75
2023-05-04T06:20:13.404Z,100564.77
2023-05-04T06:22:22.618Z,100574.59
2023-05-04T06:24:32.032Z,100582.20
2023-05-04T06:26:41.118Z,100587.94
2023-05-04T06:28:50.417Z,100582.90
2023-05-04T06:31:00.111Z,100586.10
2023-05-04T06:33:09.218Z,100588.08
2023-05-04T06:35:19.316Z,100579.63
2023-05-04T06:37:28.700Z,100571.99
2023-05-04T06:39:38.349Z,100551.92
2023-05-04T06:41:47.817Z,100541.55
2023-05-04T06:44:00.626Z,100532.39
2023-05-04T06:46:09.820Z,100518.16
2023-05-04T06:48:18.931Z,100500.67
2023-05-04T06:50:28.141Z,100486.92
2023-05-04T06:52:37.401Z,100481.71
2023-05-04T06:54:46.555Z,100472.86
2023-05-04T06:56:55.858Z,100460.94
2023-05-04T06:59:06.261Z,100442.31
2023-05-04T07:01:16.968Z,100427.79
2023-05-04T07:03:28.677Z,100422.22
2023-05-04T07:05:39.701Z,100417.11
2023-05-04T07:07:51.029Z,100403.33
2023-05-04T07:10:00.474Z,100388.81
2023-05-04T07:12:10.079Z,100384.60
2023-05-04T07:14:19.077Z,100391.33
2023-05-04T07:16:28.174Z,100395.86
2023-05-04T07:18:39.171Z,100392.98
2023-05-04T07:20:48.330Z,100388.77
2023-05-04T07:22:58.683Z,100380.67
2023-05-04T07:25:08.978Z,100377.57
2023-05-04T07:27:18.070Z,100380.73
2023-05-04T07:29:27.891Z,100378.73
2023-05-04T07:31:38.687Z,100378.11
2023-05-04T07:33:47.985Z,100374.11
2023-05-04T07:36:02.144Z,100379.89
2023-05-04T07:38:11.450Z,100386.55
2023-05-04T07:40:21.801Z,100396.91
2023-05-04T07:42:31.429Z,100411.01
2023-05-04T07:44:40.472Z,100419.06
2023-05-04T07:46:49.498Z,100429.36
2023-05-04T07:48:58.803Z,100442.48
2023-05-04T07:51:08.376Z,100456.55
2023-05-04T07:53:17.446Z,100464.85
2023-05-04T07:55:26.758Z,100465.42
2023-05-04T07:57:38.159Z,100459.61
2023-05-04T07:59:47.346Z,100461.28
2023-05-04T08:01:56.862Z,100457.45
2023-05-04T08:04:06.220Z,100463.00
2023-05-04T08:06:15.322Z,100461.20
2023-05-04T08:08:25.017Z,100463.37
2023-05-04T08:10:37.208Z,100464.23
2023-05-04T08:12:46.422Z,100468.29
2023-05-04T08:14:55.528Z,100471.92
2023-05-04T08:17:05.052Z,100476.13
2023-05-04T08:19:14.449Z,100476.92
2023-05-04T08:21:23.580Z,100475.99
2023-05-04T08:23:32.998Z,100469.78
2023-05-04T08:25:42.180Z,100455.90
2023-05-04T08:27:51.339Z,100448.42
2023-05-04T08:30:02.391Z,100446.45
2023-05-04T08:32:12.192Z,100446.48
2023-05-04T08:34:21.642Z,100445.20
2023-05-04T08:36:30.785Z,100449.85
2023-05-04T08:38:40.393Z,100452.01
2023-05-04T08:40:50.555Z,100462.48
2023-05-04T08:43:00.916Z,100472.28
2023-05-04T08:45:11.925Z,100480.86
2023-05-04T08:47:21.174Z,100479.91
2023-05-04T08:49:30.918Z,100476.54
2023-05-04T08:51:41.135Z,100474.41
2023-05-04T08:53:51.936Z,100473.08
2023-05-04T08:56:04.726Z,100472.13
2023-05-04T08:58:15.522Z,100473.16
2023-05-04T09:00:25.433Z,100472.44
2023-05-04T09:02:36.393Z,100475.27
2023-05-04T09:04:45.636Z,100477.17
2023-05-04T09:06:55.362Z,100480.95
2023-05-04T09:09:04.875Z,100482.13
2023-05-04T09:11:14.058Z,100486.52
2023-05-04T09:13:23.234Z,100487.46
2023-05-04T09:15:32.943Z,100489.19
2023-05-04T09:17:57.109Z,100487.21
2023-05-04T09:20:08.579Z,100493.50
2023-05-04T09:22:19.553Z,100493.25
2023-05-04T09:24:32.151Z,100487.76
2023-05-04T09:26:41.420Z,100490.89
2023-05-04T09:28:50.749Z,100490.24
2023-05-04T09:31:03.823Z,100486.71
2023-05-04T09:33:13.465Z,100490.42
2023-05-04T09:35:33.592Z,100494.27
2023-05-04T09:37:49.049Z,100493.69
2023-05-04T09:40:00.285Z,100494.69
2023-05-04T09:42:21.017Z,100493.98
2023-05-04T09:44:30.678Z,100484.36
2023-05-04T09:46:39.903Z,100482.08
2023-05-04T09:48:57.106Z,100483.80
2023-05-04T09:51:07.686Z,100478.05
2023-05-04T09:53:18.292Z,100472.76
2023-05-04T09:55:28.783Z,100469.27
2023-05-04T09:57:38.566Z,100467.08
2023-05-04T09:59:47.749Z,100458.08
2023-05-04T10:01:58.673Z,100463.90
2023-05-04T10:04:11.184Z,100467.36
2023-05-04T10:06:21.473Z,100462.88
2023-05-04T10:08:31.383Z,100461.91
2023-05-04T10:10:42.415Z,100463.31
2023-05-04T10:12:51.501Z,100468.20
2023-05-04T10:15:00.596Z,100470.02
2023-05-04T10:17:19.462Z,100471.11
2023-05-04T10:19:56.755Z,100473.74
2023-05-04T10:22:19.176Z,100479.25
2023-05-04T10:25:08.745Z,100488.12
2023-05-04T10:27:20.513Z,100490.62
2023-05-04T10:29:31.216Z,100487.91
2023-05-04T10:31:45.289Z,100490.27
2023-05-04T10:33:54.608Z,100494.95
2023-05-04T10:36:04.080Z,100492.52
2023-05-04T10:38:14.958Z,100487.61
2023-05-04T10:40:33.764Z,100492.86
2023-05-04T10:42:46.953Z,100500.95
2023-05-04T10:44:57.740Z,100511.63
2023-05-04T10:47:09.103Z,100518.36
2023-05-04T10:49:21.277Z,100519.52
2023-05-04T10:51:42.358Z,100521.35
2023-05-04T10:53:57.946Z,100514.89
2023-05-04T10:56:07.764Z,100519.77
2023-05-04T10:58:20.538Z,100520.76
2023-05-04T11:00:39.819Z,100517.91
2023-05-04T11:02:49.925Z,100514.61
2023-05-04T11:05:18.684Z,100507.12
2023-05-04T11:07:37.002Z,100507.75
2023-05-04T11:09:46.419Z,100505.47
2023-05-04T11:11:56.902Z,100499.48
2023-05-04T11:14:06.726Z,100489.61
2023-05-04T11:16:16.071Z,100482.70
2023-05-04T11:18:32.288Z,100480.41
2023-05-04T11:20:41.802Z,100483.80
2023-05-04T11:22:51.018Z,100486.63
2023-05-04T11:25:00.347Z,100488.98
2023-05-04T11:27:09.460Z,100484.83
2023-05-04T11:29:19.667Z,100478.92
2023-05-04T11:31:28.896Z,100476.17
2023-05-04T11:33:39.087Z,100481.19
2023-05-04T11:35:48.435Z,100479.29
2023-05-04T11:37:58.383Z,100483.91
2023-05-04T11:40:13.407Z,100486.52
2023-05-04T11:42:22.637Z,100485.48
2023-05-04T11:44:32.677Z,100484.23
2023-05-04T11:46:42.530Z,100481.47
2023-05-04T11:48:52.168Z,100484.92
2023-05-04T11:51:01.828Z,100484.05
2023-05-04T11:53:13.880Z,100484.70
2023-05-04T11:55:33.060Z,100485.02
2023-05-04T11:57:42.509Z,100489.48
2023-05-04T11:59:53.936Z,100484.91
2023-05-04T12:02:03.475Z,100479.77
2023-05-04T12:04:12.696Z,100468.61
2023-05-04T12:06:21.916Z,100470.33
2023-05-04T12:08:35.019Z,100475.42
2023-05-04T12:10:44.159Z,100474.63
2023-05-04T12:12:53.403Z,100466.34
2023-05-04T12:15:02.770Z,100475.92
2023-05-04T12:17:11.897Z,100481.58
2023-05-04T12:19:20.975Z,100484.45
2023-05-04T12:21:29.989Z,100479.70
2023-05-04T12:23:39.894Z,100469.91
2023-05-04T12:25:57.720Z,100465.34
2023-05-04T12:28:07.940Z,100469.35
2023-05-04T12:30:18.119Z,100471.15
2023-05-04T12:32:27.326Z,100468.08
2023-05-04T12:34:36.677Z,100472.69
2023-05-04T12:36:45.809Z,100470.11
2023-05-04T12:38:55.325Z,100466.56
2023-05-04T12:41:04.739Z,100464.05
2023-05-04T12:43:13.770Z,100466.48
2023-05-04T12:45:23.681Z,100465.46
2023-05-04T12:47:33.794Z,100463.65
2023-05-04T12:49:42.893Z,100461.30
2023-05-04T12:51:52.203Z,100456.98
2023-05-04T12:54:01.662Z,100455.58
2023-05-04T12:56:10.852Z,100457.86
2023-05-04T12:58:20.011Z,100465.55
2023-05-04T13:00:31.721Z,100471.91
2023-05-04T13:02:41.050Z,100478.95
2023-05-04T13:04:50.152Z,100477.22
2023-05-04T13:06:59.284Z,100472.80
2023-05-04T13:09:09.301Z,100470.36
2023-05-04T13:11:19.997Z,100474.92
2023-05-04T13:13:29.944Z,100470.44
2023-05-04T13:15:40.253Z,100464.39
2023-05-04T13:17:49.373Z,100463.11
2023-05-04T13:19:58.414Z,100456.45
2023-05-04T13:22:07.744Z,100442.70
2023-05-04T13:24:16.777Z,100435.78
2023-05-04T13:26:25.894Z,100441.65
2023-05-04T13:28:36.287Z,100451.71
2023-05-04T13:30:45.014Z,100448.73
2023-05-04T13:32:54.178Z,100445.27
2023-05-04T13:35:04.621Z,100436.78
2023-05-04T13:37:18.564Z,100443.70
2023-05-04T13:39:28.534Z,100448.19
2023-05-04T13:41:37.794Z,100441.20
2023-05-04T13:43:47.198Z,100422.77
2023-05-04T13:45:57.316Z,100428.51
2023-05-04T13:48:06.970Z,100443.85
2023-05-04T13:50:16.490Z,100455.86
2023-05-04T13:52:25.622Z,100455.39
2023-05-04T13:54:35.567Z,100456.56
2023-05-04T13:56:44.659Z,100467.87
2023-05-04T13:58:54.188Z,100476.34
2023-05-04T14:01:03.596Z,100472.64
2023-05-04T14:03:13.055Z,100460.94
2023-05-04T14:05:22.405Z,100459.91
2023-05-04T14:07:31.560Z,100461.06
2023-05-04T14:09:41.664Z,100462.55
2023-05-04T14:11:50.743Z,100459.55
2023-05-04T14:14:00.182Z,100455.45
2023-05-04T14:16:10.088Z,100451.13
2023-05-04T14:18:19.170Z,100440.67
2023-05-04T14:20:28.435Z,100432.41
2023-05-04T14:22:41.461Z,100436.89
2023-05-04T14:24:50.732Z,100449.14
2023-05-04T14:27:00.221Z,100463.64
2023-05-04T14:29:09.474Z,100481.76
2023-05-04T14:31:18.619Z,100489.19
2023-05-04T14:33:27.841Z,100490.20
2023-05-04T14:35:37.729Z,100499.16
2023-05-04T14:37:49.711Z,100504.01
2023-05-04T14:39:56.931Z,100514.27
2023-05-04T14:42:06.422Z,100513.77
2023-05-04T14:44:15.798Z,100512.79
2023-05-04T14:46:24.944Z,100515.19
2023-05-04T14:48:34.568Z,100518.86
2023-05-04T14:50:44.004Z,100527.02
2023-05-04T14:52:53.094Z,100536.80
2023-05-04T14:55:02.935Z,100529.30
2023-05-04T14:57:12.806Z,100515.70
2023-05-04T14:59:21.918Z,100508.21
2023-05-04T15:01:33.816Z,100508.06
2023-05-04T15:03:42.558Z,100501.77
2023-05-04T15:05:51.950Z,100491.08
2023-05-04T15:08:01.588Z,100484.23
2023-05-04T15:10:13.979Z,100485.64
2023-05-04T15:12:23.329Z,100491.05
2023-05-04T15:14:32.570Z,100503.83
2023-05-04T15:16:42.095Z,100509.55
2023-05-04T15:18:51.229Z,100514.23
2023-05-04T15:21:00.618Z,100509.42
2023-05-04T15:23:11.762Z,100499.94
2023-05-04T15:25:23.846Z,100500.69
2023-05-04T15:27:33.141Z,100493.62
2023-05-04T15:29:42.760Z,100496.38
2023-05-04T15:31:51.968Z,100498.44
2023-05-04T15:34:01.943Z,100493.14
2023-05-04T15:36:12.005Z,100491.30
2023-05-04T15:38:21.242Z,100482.28
2023-05-04T15:40:31.661Z,100476.05
2023-05-04T15:42:40.970Z,100472.40
2023-05-04T15:44:50.099Z,100472.34
2023-05-04T15:46:59.151Z,100480.65
2023-05-04T15:49:08.744Z,100488.43
2023-05-04T15:51:17.790Z,100495.33
2023-05-04T15:53:26.985Z,100495.95
2023-05-04T15:55:39.114Z,100501.37
2023-05-04T15:57:48.350Z,100512.02
2023-05-04T15:59:59.599Z,100527.02
2023-05-04T16:02:09.825Z,100551.50
2023-05-04T16:04:20.000Z,100567.16
2023-05-04T16:06:29.388Z,100569.60
2023-05-04T16:08:38.653Z,100559.51
2023-05-04T16:10:48.126Z,100578.63
2023-05-04T16:12:57.234Z,100587.16
2023-05-04T16:15:07.203Z,100585.70
2023-05-04T16:17:16.867Z,100569.14
2023-05-04T16:19:26.254Z,100577.33
2023-05-04T16:21:35.475Z,100583.02
2023-05-04T16:23:44.981Z,100573.65
2023-05-04T16:25:54.087Z,100563.67
2023-05-04T16:28:03.365Z,100570.48
2023-05-04T16:30:15.913Z,100571.64
2023-05-04T16:32:25.284Z,100560.27
2023-05-04T16:34:34.496Z,100548.60
2023-05-04T16:36:44.445Z,100544.70
2023-05-04T16:38:53.561Z,100542.14
2023-05-04T16:41:03.251Z,100539.15
2023-05-04T16:43:12.613Z,100540.02
2023-05-04T16:45:25.175Z,100540.78
2023-05-04T16:47:34.251Z,100544.75
2023-05-04T16:49:43.900Z,100547.96
2023-05-04T16:51:54.008Z,100548.05
2023-05-04T16:54:03.141Z,100547.73
2023-05-04T16:56:17.704Z,100553.92
2023-05-04T16:58:27.183Z,100556.94
2023-05-04T17:00:36.920Z,100557.74
2023-05-04T17:02:46.142Z,100554.35
2023-05-04T17:04:55.708Z,100557.17
2023-05-04T17:07:04.944Z,100558.26
2023-05-04T17:09:14.361Z,100562.94
2023-05-04T17:11:24.296Z,100564.74
2023-05-04T17:13:33.425Z,100569.67
2023-05-04T17:15:43.028Z,100560.64
2023-05-04T17:17:52.331Z,100551.15
2023-05-04T17:20:01.443Z,100543.86
2023-05-04T17:22:11.506Z,100541.98
2023-05-04T17:24:20.863Z,100542.10
2023-05-04T17:26:30.326Z,100546.38
2023-05-04T17:28:39.526Z,100559.79
2023-05-04T17:30:48.719Z,100569.25
2023-05-04T17:32:58.049Z,100581.41
2023-05-04T17:35:20.265Z,100579.36
2023-05-04T17:37:34.011Z,100575.43
2023-05-04T17:39:43.493Z,100572.55
2023-05-04T17:41:52.934Z,100582.53
2023-05-04T17:44:02.143Z,100580.12
2023-05-04T17:46:11.465Z,100576.05
2023-05-04T17:48:20.823Z,100560.71
2023-05-04T17:50:30.234Z,100551.38
2023-05-04T17:52:39.683Z,100545.23
2023-05-04T17:54:49.047Z,100561.31
2023-05-04T17:56:58.242Z,100583.74
2023-05-04T17:59:07.449Z,100589.02
2023-05-04T18:01:17.198Z,100589.69
2023-05-04T18:03:26.499Z,100599.72
2023-05-04T18:05:35.804Z,100609.94
2023-05-04T18:07:45.329Z,100620.05
2023-05-04T18:09:54.499Z,100617.17
2023-05-04T18:12:04.420Z,100612.98
2023-05-04T18:14:13.726Z,100615.08
2023-05-04T18:16:23.220Z,100621.08
2023-05-04T18:18:32.471Z,100621.23
2023-05-04T18:20:41.788Z,100614.69
2023-05-04T18:22:50.880Z,100610.58
2023-05-04T18:24:59.922Z,100608.91
2023-05-04T18:27:09.196Z,100608.54
2023-05-04T18:29:19.307Z,100614.17
2023-05-04T18:31:28.922Z,100613.98
2023-05-04T18:33:38.903Z,100612.05
2023-05-04T18:35:48.416Z,100608.34
2023-05-04T18:37:57.745Z,100604.45
2023-05-04T18:40:08.933Z,100605.10
2023-05-04T18:42:18.681Z,100607.86
2023-05-04T18:44:27.997Z,100615.20
2023-05-04T18:46:37.625Z,100626.23
2023-05-04T18:48:47.247Z,100638.04
2023-05-04T18:50:58.194Z,100642.52
2023-05-04T18:53:07.338Z,100639.05
2023-05-04T18:55:16.848Z,100632.02
2023-05-04T18:57:26.718Z,100635.13
2023-05-04T18:59:37.678Z,100641.70
2023-05-04T19:01:47.222Z,100646.77
2023-05-04T19:03:56.417Z,100647.70
2023-05-04T19:06:05.640Z,100642.01
2023-05-04T19:08:15.066Z,100643.45
2023-05-04T19:10:24.070Z,100645.80
2023-05-04T19:12:33.539Z,100650.48
2023-05-04T19:14:44.368Z,100649.05
2023-05-04T19:16:53.492Z,100646.05
2023-05-04T19:19:02.860Z,100654.34
2023-05-04T19:21:12.142Z,100655.09
2023-05-04T19:23:21.287Z,100650.14
2023-05-04T19:25:34.856Z,100639.99
2023-05-04T19:27:44.654Z,100625.11
2023-05-04T19:29:53.696Z,100615.03
2023-05-04T19:32:11.911Z,100609.19
2023-05-04T19:34:25.160Z,100603.54
2023-05-04T19:36:34.302Z,100597.92
2023-05-04T19:38:43.905Z,100609.70
2023-05-04T19:40:53.053Z,100626.58
2023-05-04T19:43:02.630Z,100628.77
2023-05-04T19:45:13.460Z,100618.49
2023-05-04T19:47:22.519Z,100614.76
2023-05-04T19:49:31.762Z,100611.89
2023-05-04T19:51:41.333Z,100610.63
2023-05-04T19:53:50.473Z,100612.08
2023-05-04T19:55:59.926Z,100608.92
2023-05-04T19:58:11.056Z,100606.48
2023-05-04T20:00:21.181Z,100599.77
2023-05-04T20:02:30.705Z,100606.23
2023-05-04T20:04:40.302Z,100594.63
2023-05-04T20:06:49.405Z,100596.96
2023-05-04T20:08:58.587Z,100600.37
2023-05-04T20:11:08.030Z,100601.31
2023-05-04T20:13:18.017Z,100605.56
2023-05-04T20:15:27.104Z,100611.25
2023-05-04T20:17:36.265Z,100606.23
2023-05-04T20:19:46.460Z,100602.55
2023-05-04T20:21:55.502Z,100612.04
2023-05-04T20:24:05.373Z,100610.63
2023-05-04T20:26:14.562Z,100613.17
2023-05-04T20:28:23.789Z,100612.45
2023-05-04T20:30:33.014Z,100609.17
2023-05-04T20:32:42.981Z,100612.60
2023-05-04T20:34:52.048Z,100618.00
2023-05-04T20:37:01.237Z,100619.23
2023-05-04T20:39:10.581Z,100619.56
2023-05-04T20:41:19.769Z,100623.21
2023-05-04T20:43:29.138Z,100624.73
2023-05-04T20:45:38.212Z,100622.09
2023-05-04T20:47:47.688Z,100621.43
2023-05-04T20:49:57.225Z,100625.02
2023-05-04T20:52:06.672Z,100622.39
2023-05-04T20:54:16.070Z,100624.77
2023-05-04T20:56:25.305Z,100626.80
2023-05-04T20:58:34.470Z,100625.23
2023-05-04T21:00:44.091Z,100628.05
2023-05-04T21:02:53.431Z,100625.63
2023-05-04T21:05:02.677Z,100622.91
2023-05-04T21:07:12.035Z,100624.31
2023-05-04T21:09:21.921Z,100620.85
2023-05-04T21:11:31.054Z,100620.02
2023-05-04T21:13:40.527Z,100617.20
2023-05-04T21:15:49.855Z,100610.23
2023-05-04T21:17:59.056Z,100617.58
2023-05-04T21:20:09.937Z,100617.24
2023-05-04T21:22:19.383Z,100611.98
2023-05-04T21:24:28.615Z,100608.89
2023-05-04T21:26:38.417Z,100604.52
2023-05-04T21:28:47.958Z,100596.78
2023-05-04T21:30:57.154Z,100600.66
2023-05-04T21:33:06.517Z,100599.20
2023-05-04T21:35:16.852Z,100597.69
2023-05-04T21:37:25.896Z,100599.15
2023-05-04T21:39:35.028Z,100599.05
2023-05-04T21:41:46.886Z,100602.79
2023-05-04T21:43:56.630Z,100603.09
2023-05-04T21:46:06.037Z,100601.30
2023-05-04T21:48:15.391Z,100605.21
2023-05-04T21:50:24.678Z,100602.34
2023-05-04T21:52:33.647Z,100604.09
2023-05-04T21:54:43.167Z,100611.16
2023-05-04T21:56:52.130Z,100613.61
2023-05-04T21:59:01.499Z,100610.31
2023-05-04T22:01:11.083Z,100612.52
2023-05-04T22:03:20.334Z,100607.46
2023-05-04T22:05:29.496Z,100604.45
2023-05-04T22:07:38.805Z,100597.46
2023-05-04T22:09:48.304Z,100596.47
2023-05-04T22:11:57.532Z,100591.04
2023-05-04T22:14:07.293Z,100588.60
2023-05-04T22:16:16.693Z,100585.27
2023-05-04T22:18:25.810Z,100577.17
2023-05-04T22:20:35.085Z,100574.64
2023-05-04T22:22:44.443Z,100574.94
2023-05-04T22:24:53.576Z,100573.86
2023-05-04T22:27:03.726Z,100578.48
2023-05-04T22:29:13.203Z,100583.75
2023-05-04T22:31:22.705Z,100588.46
2023-05-04T22:33:31.903Z,100590.52
2023-05-04T22:35:41.065Z,100593.61
2023-05-04T22:37:52.387Z,100591.88
2023-05-04T22:40:01.809Z,100586.60
2023-05-04T22:42:10.970Z,100584.95
2023-05-04T22:44:20.988Z,100583.73
2023-05-04T22:46:30.077Z,100579.86
2023-05-04T22:48:39.231Z,100578.80
2023-05-04T22:50:48.838Z,100579.64
2023-05-04T22:52:57.920Z,100579.70
2023-05-04T22:55:08.430Z,100580.48
2023-05-04T22:57:17.603Z,100580.14
2023-05-04T22:59:26.870Z,100581.52
2023-05-04T23:01:36.097Z,100576.64
2023-05-04T23:03:45.575Z,100577.92
2023-05-04T23:05:54.859Z,100572.86
2023-05-04T23:08:04.071Z,100576.36
2023-05-04T23:10:14.537Z,100573.98
2023-05-04T23:12:23.759Z,100569.09
2023-05-04T23:14:33.567Z,100565.05
2023-05-04T23:16:42.704Z,100563.39
2023-05-04T23:18:52.110Z,100556.93
2023-05-04T23:21:01.289Z,100552.27
2023-05-04T23:23:10.340Z,100556.62
2023-05-04T23:25:19.853Z,100554.80
2023-05-04T23:27:28.893Z,100559.72
2023-05-04T23:29:38.706Z,100562.77
2023-05-04T23:31:47.969Z,100562.77
2023-05-04T23:33:57.102Z,100563.14
2023-05-04T23:36:06.691Z,100564.48
2023-05-04T23:38:15.953Z,100564.08
2023-05-04T23:40:25.323Z,100556.61
2023-05-04T23:42:34.432Z,100556.19
2023-05-04T23:44:44.228Z,100554.20
2023-05-04T23:46:53.345Z,100555.88
2023-05-04T23:49:02.441Z,100558.65
2023-05-04T23:51:11.660Z,100555.36
2023-05-04T23:53:21.065Z,100557.95
2023-05-04T23:55:30.141Z,100559.17
2023-05-04T23:57:39.252Z,100561.19
2023-05-04T23:59:48.446Z,100558.13
